Time;durP1;ratioP1;P1;durP2;ratioP2;P2;SDS_P1;SDS_P2;PMS_P1;PMS_P2;Temp;Humidity;BMP_temperature;BMP_pressure;BME280_temperature;BME280_humidity;BME280_pressure;Samples;Min_cycle;Max_cycle;Signal;HPM_P1;HPM_P2
2022/08/25 00:02:07;;;;;;;;;;;;;;;;;;4984999;28;19916;-89
2022/08/25 00:04:33;;;;;;;;;;;;;;;;;;4983279;28;20292;-89
2022/08/25 00:06:59;;;;;;;;;;;;;;;;;;4981603;28;20016;-88
2022/08/25 00:09:24;;;;;;;;;;;;;;;;;;4984618;28;20383;-88
2022/08/25 00:11:50;;;;;;;;;;;;;;;;;;4984264;28;20775;-88
2022/08/25 00:14:15;;;;;;;;;;;;;;;;;;4996787;28;20296;-88
2022/08/25 00:16:40;;;;;;;;;;;;;;;;;;4990012;28;19989;-88
2022/08/25 00:19:05;;;;;;;;;;;;;;;;;;5001057;28;19910;-88
2022/08/25 00:21:30;;;;;;;;;;;;;;;;;;4998300;28;19925;-88
2022/08/25 00:23:55;;;;;;;;;;;;;;;;;;5000055;28;19910;-88
2022/08/25 00:26:21;;;;;;;;;;;;;;;;;;5001074;28;19969;-90
2022/08/25 00:28:46;;;;;;;;;;;;;;;;;;4986723;28;20005;-89
2022/08/25 00:31:11;;;;;;;;;;;;;;;;;;4993837;28;19977;-89
2022/08/25 00:33:36;;;;;;;;;;;;;;;;;;4980568;28;19965;-88
2022/08/25 00:36:01;;;;;;;;;;;;;;;;;;4981841;28;20684;-88
2022/08/25 00:38:26;;;;;;;;;;;;;;;;;;4977115;28;19913;-87
2022/08/25 00:41:04;;;;;;;;;;;;;;;;;;4978393;28;19939;-88
2022/08/25 00:43:29;;;;;;;;;;;;;;;;;;4977715;28;19929;-87
2022/08/25 00:45:58;;;;;;;;;;;;;;;;;;4976179;28;19914;-88
2022/08/25 00:48:23;;;;;;;;;;;;;;;;;;4979998;28;19913;-88
2022/08/25 00:50:48;;;;;;;;;;;;;;;;;;4981155;28;20001;-89
2022/08/25 00:53:13;;;;;;;;;;;;;;;;;;4982730;28;19920;-90
2022/08/25 00:55:38;;;;;;;;;;;;;;;;;;4982231;28;19910;-91
2022/08/25 00:58:03;;;;;;;;;;;;;;;;;;4980962;28;20368;-87
2022/08/25 01:00:29;;;;;;;;;;;;;;;;;;4981315;28;20383;-90
2022/08/25 01:02:55;;;;;;;;;;;;;;;;;;4981252;28;20025;-89
2022/08/25 01:05:20;;;;;;;;;;;;;;;;;;4977768;28;19964;-88
2022/08/25 01:07:45;;;;;;;;;;;;;;;;;;4980499;28;19960;-90
2022/08/25 01:10:12;;;;;;;;;;;;;;;;;;4977926;28;20380;-89
2022/08/25 01:12:37;;;;;;;;;;;;;;;;;;4998161;28;20367;-90
2022/08/25 01:15:02;;;;;;;;;;;;;;;;;;4978843;28;19920;-90
2022/08/25 01:17:29;;;;;;;;;;;;;;;;;;4979878;28;19981;-88
2022/08/25 01:19:54;;;;;;;;;;;;;;;;;;4977250;28;21375;-86
2022/08/25 01:22:19;;;;;;;;;;;;;;;;;;4980435;28;20379;-88
2022/08/25 01:24:45;;;;;;;;;;;;;;;;;;4980618;28;19933;-87
2022/08/25 01:27:10;;;;;;;;;;;;;;;;;;4979284;28;20029;-88
2022/08/25 01:29:35;;;;;;;;;;;;;;;;;;4979913;28;20304;-89
2022/08/25 01:32:00;;;;;;;;;;;;;;;;;;4996054;28;20057;-88
2022/08/25 01:34:27;;;;;;;;;;;;;;;;;;4961946;28;19914;-89
2022/08/25 01:36:52;;;;;;;;;;;;;;;;;;4973114;28;19909;-88
2022/08/25 01:39:17;;;;;;;;;;;;;;;;;;4989693;28;19921;-89
2022/08/25 01:41:42;;;;;;;;;;;;;;;;;;4978500;28;19910;-88
2022/08/25 01:44:08;;;;;;;;;;;;;;;;;;4972039;28;19924;-89
2022/08/25 01:46:33;;;;;;;;;;;;;;;;;;4967706;28;19918;-89
2022/08/25 01:48:58;;;;;;;;;;;;;;;;;;4980677;28;19920;-87
2022/08/25 01:51:23;;;;;;;;;;;;;;;;;;4987721;28;19924;-89
2022/08/25 01:53:49;;;;;;;;;;;;;;;;;;4983709;28;20037;-87
2022/08/25 01:56:16;;;;;;;;;;;;;;;;;;4972141;28;19914;-89
2022/08/25 01:58:41;;;;;;;;;;;;;;;;;;4988476;28;20005;-89
2022/08/25 02:01:06;;;;;;;;;;;;;;;;;;4991440;28;19917;-88
2022/08/25 02:03:31;;;;;;;;;;;;;;;;;;4988339;28;19918;-87
2022/08/25 02:05:56;;;;;;;;;;;;;;;;;;4989339;28;20379;-87
2022/08/25 02:08:22;;;;;;;;;;;;;;;;;;4985185;28;19973;-87
2022/08/25 02:10:47;;;;;;;;;;;;;;;;;;4988887;28;19918;-88
2022/08/25 02:13:12;;;;;;;;;;;;;;;;;;4988661;28;19918;-89
2022/08/25 02:15:37;;;;;;;;;;;;;;;;;;4985929;28;19941;-88
2022/08/25 02:18:02;;;;;;;;;;;;;;;;;;4989488;28;19942;-89
2022/08/25 02:20:27;;;;;;;;;;;;;;;;;;4988250;28;19914;-89
2022/08/25 02:22:53;;;;;;;;;;;;;;;;;;4987146;28;19909;-88
2022/08/25 02:25:18;;;;;;;;;;;;;;;;;;4998484;28;19914;-88
2022/08/25 02:27:44;;;;;;;;;;;;;;;;;;4983979;28;19913;-86
2022/08/25 02:30:09;;;;;;;;;;;;;;;;;;4993563;28;19920;-87
2022/08/25 02:32:34;;;;;;;;;;;;;;;;;;4989812;28;19953;-88
2022/08/25 02:34:59;;;;;;;;;;;;;;;;;;4975081;28;19975;-89
2022/08/25 02:37:25;;;;;;;;;;;;;;;;;;4997962;28;20384;-88
2022/08/25 02:39:50;;;;;;;;;;;;;;;;;;4979256;28;19922;-88
2022/08/25 02:42:15;;;;;;;;;;;;;;;;;;4996275;28;19913;-89
2022/08/25 02:44:41;;;;;;;;;;;;;;;;;;4972840;28;20364;-88
2022/08/25 02:47:06;;;;;;;;;;;;;;;;;;4979346;28;19914;-89
2022/08/25 02:49:31;;;;;;;;;;;;;;;;;;4979582;28;19909;-89
2022/08/25 02:51:59;;;;;;;;;;;;;;;;;;4978078;28;19932;-87
2022/08/25 02:54:24;;;;;;;;;;;;;;;;;;4962508;28;19960;-87
2022/08/25 02:56:49;;;;;;;;;;;;;;;;;;4977043;28;19914;-89
2022/08/25 02:59:16;;;;;;;;;;;;;;;;;;4979297;28;19941;-88
2022/08/25 03:01:41;;;;;;;;;;;;;;;;;;4976440;28;20368;-88
2022/08/25 03:04:07;;;;;;;;;;;;;;;;;;4977275;28;19914;-88
2022/08/25 03:06:32;;;;;;;;;;;;;;;;;;4972161;28;20315;-89
2022/08/25 03:08:57;;;;;;;;;;;;;;;;;;4965239;28;19918;-88
2022/08/25 03:11:25;;;;;;;;;;;;;;;;;;4978078;28;20215;-88
2022/08/25 03:13:50;;;;;;;;;;;;;;;;;;4975556;28;20004;-88
2022/08/25 03:16:15;;;;;;;;;;;;;;;;;;4974963;28;19972;-88
2022/08/25 03:18:40;;;;;;;;;;;;;;;;;;4978539;28;19965;-88
2022/08/25 03:21:05;;;;;;;;;;;;;;;;;;4976543;28;19968;-88
2022/08/25 03:23:31;;;;;;;;;;;;;;;;;;4977105;28;20372;-88
2022/08/25 03:28:40;;;;;;;;;;;;;;;;;;4996582;28;19921;-89
2022/08/25 03:31:05;;;;;;;;;;;;;;;;;;4978673;28;19922;-90
2022/08/25 03:33:30;;;;;;;;;;;;;;;;;;4975852;28;19940;-89
2022/08/25 03:35:55;;;;;;;;;;;;;;;;;;4991018;28;20000;-89
2022/08/25 03:38:21;;;;;;;;;;;;;;;;;;4976588;28;20364;-89
2022/08/25 03:40:46;;;;;;;;;;;;;;;;;;4976584;28;19913;-89
2022/08/25 03:43:12;;;;;;;;;;;;;;;;;;4975823;28;19925;-87
2022/08/25 03:45:37;;;;;;;;;;;;;;;;;;4975092;28;19921;-90
2022/08/25 03:48:02;;;;;;;;;;;;;;;;;;4970374;28;20361;-90
2022/08/25 03:50:28;;;;;;;;;;;;;;;;;;4971259;28;19993;-89
2022/08/25 03:52:53;;;;;;;;;;;;;;;;;;4977102;28;19925;-88
2022/08/25 03:55:18;;;;;;;;;;;;;;;;;;4975904;28;19914;-89
2022/08/25 03:57:43;;;;;;;;;;;;;;;;;;4976810;28;20324;-88
2022/08/25 04:00:09;;;;;;;;;;;;;;;;;;4976631;28;19960;-88
2022/08/25 04:02:34;;;;;;;;;;;;;;;;;;4977355;28;20000;-88
2022/08/25 04:04:59;;;;;;;;;;;;;;;;;;4974342;28;20175;-88
2022/08/25 04:07:25;;;;;;;;;;;;;;;;;;4975677;28;19937;-87
2022/08/25 04:09:50;;;;;;;;;;;;;;;;;;4976820;28;19945;-87
2022/08/25 04:12:15;;;;;;;;;;;;;;;;;;4978714;28;19914;-88
2022/08/25 04:14:41;;;;;;;;;;;;;;;;;;4976516;28;19979;-88
2022/08/25 04:17:06;;;;;;;;;;;;;;;;;;4976252;28;20383;-87
2022/08/25 04:19:32;;;;;;;;;;;;;;;;;;4970372;28;20371;-88
2022/08/25 04:21:57;;;;;;;;;;;;;;;;;;4980685;28;19953;-86
2022/08/25 04:24:22;;;;;;;;;;;;;;;;;;4979464;28;19914;-88
2022/08/25 04:26:47;;;;;;;;;;;;;;;;;;4977627;28;19938;-89
2022/08/25 04:29:13;;;;;;;;;;;;;;;;;;4979655;28;19924;-89
2022/08/25 04:31:38;;;;;;;;;;;;;;;;;;4980760;28;19922;-89
2022/08/25 04:34:03;;;;;;;;;;;;;;;;;;4979650;28;19922;-88
2022/08/25 04:36:28;;;;;;;;;;;;;;;;;;4976715;28;20372;-88
2022/08/25 04:38:53;;;;;;;;;;;;;;;;;;4970374;28;19916;-87
2022/08/25 04:41:19;;;;;;;;;;;;;;;;;;4978693;28;20361;-88
2022/08/25 04:43:44;;;;;;;;;;;;;;;;;;4976124;28;19925;-87
2022/08/25 04:46:13;;;;;;;;;;;;;;;;;;4974490;28;19937;-87
2022/08/25 04:48:38;;;;;;;;;;;;;;;;;;4978840;28;20009;-87
2022/08/25 04:51:03;;;;;;;;;;;;;;;;;;4995030;28;19925;-87
2022/08/25 04:53:29;;;;;;;;;;;;;;;;;;4978372;28;19921;-88
2022/08/25 04:55:55;;;;;;;;;;;;;;;;;;4993071;28;19917;-86
2022/08/25 04:58:20;;;;;;;;;;;;;;;;;;4977908;28;20291;-87
2022/08/25 05:00:45;;;;;;;;;;;;;;;;;;4978806;28;20008;-87
2022/08/25 05:03:13;;;;;;;;;;;;;;;;;;4991253;28;19918;-87
2022/08/25 05:05:38;;;;;;;;;;;;;;;;;;4959649;28;19910;-88
2022/08/25 05:08:03;;;;;;;;;;;;;;;;;;4964046;28;19910;-87
2022/08/25 05:10:28;;;;;;;;;;;;;;;;;;4977238;28;19914;-86
2022/08/25 05:12:53;;;;;;;;;;;;;;;;;;4976278;28;20419;-88
2022/08/25 05:18:02;;;;;;;;;;;;;;;;;;4986222;28;19921;-89
2022/08/25 05:20:29;;;;;;;;;;;;;;;;;;4978780;28;20000;-87
2022/08/25 05:22:55;;;;;;;;;;;;;;;;;;4976872;28;19914;-88
2022/08/25 05:25:20;;;;;;;;;;;;;;;;;;4978844;28;19914;-88
2022/08/25 05:27:45;;;;;;;;;;;;;;;;;;4977320;28;19914;-88
2022/08/25 05:30:10;;;;;;;;;;;;;;;;;;4973957;28;19924;-88
2022/08/25 05:32:36;;;;;;;;;;;;;;;;;;4976515;28;20332;-86
2022/08/25 05:35:01;;;;;;;;;;;;;;;;;;4977791;28;19918;-86
2022/08/25 05:37:26;;;;;;;;;;;;;;;;;;4977656;28;19921;-87
2022/08/25 05:39:51;;;;;;;;;;;;;;;;;;4976814;28;19914;-86
2022/08/25 05:42:16;;;;;;;;;;;;;;;;;;4978287;28;19914;-86
2022/08/25 05:44:42;;;;;;;;;;;;;;;;;;4991390;28;19918;-84
2022/08/25 05:47:07;;;;;;;;;;;;;;;;;;4977631;28;19917;-83
2022/08/25 05:49:32;;;;;;;;;;;;;;;;;;4976798;28;20380;-87
2022/08/25 05:51:58;;;;;;;;;;;;;;;;;;4977960;28;19913;-85
2022/08/25 05:54:23;;;;;;;;;;;;;;;;;;4992832;28;20000;-84
2022/08/25 05:56:48;;;;;;;;;;;;;;;;;;4976838;28;20361;-85
2022/08/25 05:59:13;;;;;;;;;;;;;;;;;;4974768;28;19914;-84
2022/08/25 06:04:23;;;;;;;;;;;;;;;;;;4992793;28;20307;-85
2022/08/25 06:06:52;;;;;;;;;;;;;;;;;;4977620;28;19962;-87
2022/08/25 06:09:17;;;;;;;;;;;;;;;;;;4978434;28;19914;-86
2022/08/25 06:11:42;;;;;;;;;;;;;;;;;;4976417;28;19922;-85
2022/08/25 06:14:07;;;;;;;;;;;;;;;;;;4971778;28;19918;-85
2022/08/25 06:16:33;;;;;;;;;;;;;;;;;;4972496;28;19918;-85
2022/08/25 06:18:58;;;;;;;;;;;;;;;;;;4974628;28;20328;-88
2022/08/25 06:21:24;;;;;;;;;;;;;;;;;;4971747;28;19918;-87
2022/08/25 06:23:49;;;;;;;;;;;;;;;;;;4975883;28;20323;-86
2022/08/25 06:26:14;;;;;;;;;;;;;;;;;;4974196;28;19933;-89
2022/08/25 06:28:39;;;;;;;;;;;;;;;;;;4975127;28;19924;-88
2022/08/25 06:31:07;;;;;;;;;;;;;;;;;;4978388;28;20371;-89
2022/08/25 06:33:33;;;;;;;;;;;;;;;;;;4977521;28;20399;-89
2022/08/25 06:35:59;;;;;;;;;;;;;;;;;;4973944;28;20169;-87
2022/08/25 06:38:26;;;;;;;;;;;;;;;;;;4966531;28;20459;-89
2022/08/25 06:40:52;;;;;;;;;;;;;;;;;;4974537;28;20376;-89
2022/08/25 06:43:17;;;;;;;;;;;;;;;;;;4973067;28;19914;-86
2022/08/25 06:45:42;;;;;;;;;;;;;;;;;;4974215;28;19998;-87
2022/08/25 06:48:08;;;;;;;;;;;;;;;;;;4977311;28;19914;-87
2022/08/25 06:50:33;;;;;;;;;;;;;;;;;;4974717;28;20334;-87
2022/08/25 06:52:58;;;;;;;;;;;;;;;;;;4971623;28;19914;-88
2022/08/25 06:55:23;;;;;;;;;;;;;;;;;;4973626;28;19910;-85
2022/08/25 06:57:49;;;;;;;;;;;;;;;;;;4988098;28;19914;-87
2022/08/25 07:00:16;;;;;;;;;;;;;;;;;;4977987;28;19914;-91
2022/08/25 07:02:41;;;;;;;;;;;;;;;;;;4977198;28;19972;-88
2022/08/25 07:05:06;;;;;;;;;;;;;;;;;;4979803;28;19913;-88
2022/08/25 07:07:32;;;;;;;;;;;;;;;;;;4992432;28;19918;-86
2022/08/25 07:09:58;;;;;;;;;;;;;;;;;;4972435;28;19976;-82
2022/08/25 07:12:23;;;;;;;;;;;;;;;;;;4975513;28;19914;-83
2022/08/25 07:14:48;;;;;;;;;;;;;;;;;;4968838;28;19921;-84
2022/08/25 07:17:14;;;;;;;;;;;;;;;;;;4975209;28;20492;-83
2022/08/25 07:19:39;;;;;;;;;;;;;;;;;;4990531;28;19913;-83
2022/08/25 07:22:05;;;;;;;;;;;;;;;;;;4973599;28;19929;-83
2022/08/25 07:24:30;;;;;;;;;;;;;;;;;;4974708;28;19914;-83
2022/08/25 07:26:55;;;;;;;;;;;;;;;;;;4973304;28;20016;-83
2022/08/25 07:29:21;;;;;;;;;;;;;;;;;;4974186;28;20041;-85
2022/08/25 07:31:46;;;;;;;;;;;;;;;;;;4972234;28;19922;-83
2022/08/25 07:36:56;;;;;;;;;;;;;;;;;;4973296;28;20287;-85
2022/08/25 07:39:21;;;;;;;;;;;;;;;;;;4973351;28;20016;-85
2022/08/25 07:41:46;;;;;;;;;;;;;;;;;;4973245;28;19937;-84
2022/08/25 07:44:12;;;;;;;;;;;;;;;;;;4969188;28;19969;-84
2022/08/25 07:46:37;;;;;;;;;;;;;;;;;;4991725;28;19920;-85
2022/08/25 07:49:02;;;;;;;;;;;;;;;;;;4994444;28;19996;-84
2022/08/25 07:51:27;;;;;;;;;;;;;;;;;;4975862;28;20373;-85
2022/08/25 07:53:52;;;;;;;;;;;;;;;;;;4978032;28;19924;-85
2022/08/25 07:56:19;;;;;;;;;;;;;;;;;;4980068;28;19913;-84
2022/08/25 07:58:44;;;;;;;;;;;;;;;;;;4979752;28;20299;-84
2022/08/25 08:01:09;;;;;;;;;;;;;;;;;;4977135;28;20400;-87
2022/08/25 08:03:35;;;;;;;;;;;;;;;;;;4970728;28;19921;-84
2022/08/25 08:06:00;;;;;;;;;;;;;;;;;;4971361;28;19909;-84
2022/08/25 08:08:25;;;;;;;;;;;;;;;;;;4978937;28;19960;-84
2022/08/25 08:10:51;;;;;;;;;;;;;;;;;;4976511;28;19972;-84
2022/08/25 08:13:16;;;;;;;;;;;;;;;;;;4991718;28;19914;-84
2022/08/25 08:15:41;;;;;;;;;;;;;;;;;;4983004;28;20401;-84
2022/08/25 08:18:07;;;;;;;;;;;;;;;;;;4962300;28;19914;-88
2022/08/25 08:20:33;;;;;;;;;;;;;;;;;;4959115;28;20032;-86
2022/08/25 08:22:58;;;;;;;;;;;;;;;;;;4953801;28;19926;-85
2022/08/25 08:25:23;;;;;;;;;;;;;;;;;;4957098;28;20387;-85
2022/08/25 08:27:49;;;;;;;;;;;;;;;;;;4957171;28;19921;-86
2022/08/25 08:30:14;;;;;;;;;;;;;;;;;;4950260;28;19914;-85
2022/08/25 08:32:42;;;;;;;;;;;;;;;;;;4962583;28;20028;-85
2022/08/25 08:35:07;;;;;;;;;;;;;;;;;;4958557;28;19914;-85
2022/08/25 08:37:32;;;;;;;;;;;;;;;;;;4958947;28;19921;-85
2022/08/25 08:40:00;;;;;;;;;;;;;;;;;;4957432;28;19918;-84
2022/08/25 08:42:25;;;;;;;;;;;;;;;;;;4959385;28;20371;-85
2022/08/25 08:44:50;;;;;;;;;;;;;;;;;;4953489;28;19937;-85
2022/08/25 08:47:16;;;;;;;;;;;;;;;;;;4957662;28;19918;-86
2022/08/25 08:49:41;;;;;;;;;;;;;;;;;;4957113;28;20056;-85
2022/08/25 08:52:06;;;;;;;;;;;;;;;;;;4954329;28;19982;-87
2022/08/25 08:54:31;;;;;;;;;;;;;;;;;;4952738;28;20308;-85
2022/08/25 08:56:56;;;;;;;;;;;;;;;;;;4954718;29;20017;-85
2022/08/25 08:59:24;;;;;;;;;;;;;;;;;;4953194;28;19914;-85
2022/08/25 09:01:49;;;;;;;;;;;;;;;;;;4956901;28;19988;-84
2022/08/25 09:04:15;;;;;;;;;;;;;;;;;;4953093;28;20365;-83
2022/08/25 09:06:40;;;;;;;;;;;;;;;;;;4956385;28;19917;-83
2022/08/25 09:09:05;;;;;;;;;;;;;;;;;;4955783;28;20463;-85
2022/08/25 09:11:30;;;;;;;;;;;;;;;;;;4969591;28;20361;-83
2022/08/25 09:13:56;;;;;;;;;;;;;;;;;;4956160;28;20013;-85
2022/08/25 09:19:05;;;;;;;;;;;;;;;;;;4994306;28;20017;-83
2022/08/25 09:21:31;;;;;;;;;;;;;;;;;;4974831;28;20390;-85
2022/08/25 09:23:56;;;;;;;;;;;;;;;;;;4994653;28;19920;-86
2022/08/25 09:26:21;;;;;;;;;;;;;;;;;;4969575;28;19973;-87
2022/08/25 09:28:47;;;;;;;;;;;;;;;;;;4976501;28;20468;-87
2022/08/25 09:31:13;;;;;;;;;;;;;;;;;;4990815;28;19926;-85
2022/08/25 09:33:38;;;;;;;;;;;;;;;;;;4973813;28;19921;-84
2022/08/25 09:36:03;;;;;;;;;;;;;;;;;;4963013;28;19917;-84
2022/08/25 09:38:29;;;;;;;;;;;;;;;;;;4976396;28;19929;-85
2022/08/25 09:40:55;;;;;;;;;;;;;;;;;;4971323;28;19914;-84
2022/08/25 09:43:20;;;;;;;;;;;;;;;;;;4971147;28;19933;-85
2022/08/25 09:45:45;;;;;;;;;;;;;;;;;;4988892;28;20341;-85
2022/08/25 09:48:10;;;;;;;;;;;;;;;;;;4973948;28;20119;-83
2022/08/25 09:50:35;;;;;;;;;;;;;;;;;;4975414;28;19953;-85
2022/08/25 09:53:00;;;;;;;;;;;;;;;;;;4975886;28;20439;-84
2022/08/25 09:55:26;;;;;;;;;;;;;;;;;;4991851;28;19914;-83
2022/08/25 09:57:51;;;;;;;;;;;;;;;;;;4974051;28;19979;-82
2022/08/25 10:00:16;;;;;;;;;;;;;;;;;;4974778;28;19913;-82
2022/08/25 10:02:42;;;;;;;;;;;;;;;;;;4989278;28;19921;-83
2022/08/25 10:05:07;;;;;;;;;;;;;;;;;;4971243;28;19965;-83
2022/08/25 10:07:33;;;;;;;;;;;;;;;;;;4973299;28;19960;-83
2022/08/25 10:09:58;;;;;;;;;;;;;;;;;;4971105;28;19957;-82
2022/08/25 10:12:23;;;;;;;;;;;;;;;;;;4973633;28;19918;-82
2022/08/25 10:14:49;;;;;;;;;;;;;;;;;;4968688;28;19936;-81
2022/08/25 10:17:14;;;;;;;;;;;;;;;;;;4960781;28;19977;-83
2022/08/25 10:19:39;;;;;;;;;;;;;;;;;;4970390;28;19929;-83
2022/08/25 10:22:04;;;;;;;;;;;;;;;;;;4976591;28;19932;-84
2022/08/25 10:24:29;;;;;;;;;;;;;;;;;;4984114;28;19961;-84
2022/08/25 10:26:54;;;;;;;;;;;;;;;;;;4966820;28;20361;-83
2022/08/25 10:29:20;;;;;;;;;;;;;;;;;;4968756;28;19988;-83
2022/08/25 10:31:45;;;;;;;;;;;;;;;;;;4976380;28;19972;-82
2022/08/25 10:34:10;;;;;;;;;;;;;;;;;;4973863;28;19914;-84
2022/08/25 10:36:36;;;;;;;;;;;;;;;;;;4976415;28;19921;-83
2022/08/25 10:39:01;;;;;;;;;;;;;;;;;;4973196;28;19929;-83
2022/08/25 10:41:26;;;;;;;;;;;;;;;;;;4972896;28;20020;-82
2022/08/25 10:43:51;;;;;;;;;;;;;;;;;;4969586;28;19918;-83
2022/08/25 10:46:16;;;;;;;;;;;;;;;;;;4972912;28;20696;-84
2022/08/25 10:48:41;;;;;;;;;;;;;;;;;;4973092;28;20368;-85
2022/08/25 10:51:07;;;;;;;;;;;;;;;;;;4970349;28;19922;-83
2022/08/25 10:53:32;;;;;;;;;;;;;;;;;;4974805;28;19917;-83
2022/08/25 10:55:57;;;;;;;;;;;;;;;;;;4974414;28;19914;-83
2022/08/25 10:58:22;;;;;;;;;;;;;;;;;;4992093;28;19918;-83
2022/08/25 11:00:47;;;;;;;;;;;;;;;;;;4973052;28;19914;-83
2022/08/25 11:03:34;;;;;;;;;;;;;;;;;;4974098;28;20016;-83
2022/08/25 11:05:58;;;;;;;;;;;;;;;;;;4991371;28;19913;-82
2022/08/25 11:08:23;;;;;;;;;;;;;;;;;;4974880;28;20348;-82
2022/08/25 11:10:48;;;;;;;;;;;;;;;;;;4972624;28;19914;-82
2022/08/25 11:13:14;;;;;;;;;;;;;;;;;;4970228;28;19914;-82
2022/08/25 11:15:39;;;;;;;;;;;;;;;;;;4969427;28;20351;-82
2022/08/25 11:18:04;;;;;;;;;;;;;;;;;;4978405;28;19909;-82
2022/08/25 11:20:32;;;;;;;;;;;;;;;;;;5007102;28;19921;-82
2022/08/25 11:22:57;;;;;;;;;;;;;;;;;;4970615;28;19914;-81
2022/08/25 11:25:23;;;;;;;;;;;;;;;;;;4973488;28;19921;-81
2022/08/25 11:27:48;;;;;;;;;;;;;;;;;;4973509;28;19914;-82
2022/08/25 11:30:13;;;;;;;;;;;;;;;;;;4963423;28;20291;-82
2022/08/25 11:32:38;;;;;;;;;;;;;;;;;;4983574;28;19922;-83
2022/08/25 11:35:03;;;;;;;;;;;;;;;;;;4965773;28;20292;-83
2022/08/25 11:37:28;;;;;;;;;;;;;;;;;;4963882;28;19918;-81
2022/08/25 11:39:53;;;;;;;;;;;;;;;;;;4990221;28;19914;-81
2022/08/25 11:42:19;;;;;;;;;;;;;;;;;;4972195;28;19932;-85
2022/08/25 11:44:44;;;;;;;;;;;;;;;;;;4988434;28;19914;-84
2022/08/25 11:47:09;;;;;;;;;;;;;;;;;;4974792;28;20276;-84
2022/08/25 11:49:35;;;;;;;;;;;;;;;;;;4969532;28;20012;-94
2022/08/25 11:52:00;;;;;;;;;;;;;;;;;;4979790;28;19917;-86
2022/08/25 11:54:25;;;;;;;;;;;;;;;;;;4979535;28;19920;-85
2022/08/25 11:56:50;;;;;;;;;;;;;;;;;;4958863;28;19917;-87
2022/08/25 11:59:15;;;;;;;;;;;;;;;;;;4973659;28;19972;-87
2022/08/25 12:01:41;;;;;;;;;;;;;;;;;;4973428;28;19957;-85
2022/08/25 12:04:07;;;;;;;;;;;;;;;;;;4968822;28;19914;-86
2022/08/25 12:06:33;;;;;;;;;;;;;;;;;;4993517;28;19924;-90
2022/08/25 12:08:58;;;;;;;;;;;;;;;;;;4976400;28;19965;-89
2022/08/25 12:11:23;;;;;;;;;;;;;;;;;;4977215;28;20004;-87
2022/08/25 12:13:48;;;;;;;;;;;;;;;;;;4972342;28;19922;-91
2022/08/25 12:16:13;;;;;;;;;;;;;;;;;;4978969;28;19925;-94
2022/08/25 12:18:41;;;;;;;;;;;;;;;;;;4978962;28;19937;-87
2022/08/25 12:21:06;;;;;;;;;;;;;;;;;;4995062;28;19917;-85
2022/08/25 12:23:31;;;;;;;;;;;;;;;;;;4976070;28;20666;-86
2022/08/25 12:25:56;;;;;;;;;;;;;;;;;;4992700;28;20331;-88
2022/08/25 12:28:22;;;;;;;;;;;;;;;;;;4973232;28;20008;-90
2022/08/25 12:30:47;;;;;;;;;;;;;;;;;;4972109;28;19918;-90
2022/08/25 12:33:15;;;;;;;;;;;;;;;;;;5003079;28;20004;-89
2022/08/25 12:35:41;;;;;;;;;;;;;;;;;;4997893;28;19972;-92
2022/08/25 12:38:12;;;;;;;;;;;;;;;;;;4982659;28;20356;-91
2022/08/25 12:40:40;;;;;;;;;;;;;;;;;;4973593;28;19959;-93
2022/08/25 12:43:06;;;;;;;;;;;;;;;;;;4978055;28;19936;-88
2022/08/25 12:45:31;;;;;;;;;;;;;;;;;;4976451;28;20302;-87
2022/08/25 12:47:56;;;;;;;;;;;;;;;;;;4975275;28;19961;-83
2022/08/25 12:50:22;;;;;;;;;;;;;;;;;;4976891;28;20268;-85
2022/08/25 12:52:47;;;;;;;;;;;;;;;;;;4971436;28;20288;-84
2022/08/25 12:55:12;;;;;;;;;;;;;;;;;;4977118;28;19914;-84
2022/08/25 12:57:37;;;;;;;;;;;;;;;;;;4973894;28;20372;-85
2022/08/25 13:00:02;;;;;;;;;;;;;;;;;;4974245;28;19914;-85
2022/08/25 13:02:27;;;;;;;;;;;;;;;;;;4975835;28;20300;-85
2022/08/25 13:04:52;;;;;;;;;;;;;;;;;;4976239;28;19961;-83
2022/08/25 13:07:18;;;;;;;;;;;;;;;;;;4973171;28;19914;-85
2022/08/25 13:09:43;;;;;;;;;;;;;;;;;;4965228;28;19917;-85
2022/08/25 13:12:08;;;;;;;;;;;;;;;;;;4977895;28;19960;-85
2022/08/25 13:14:34;;;;;;;;;;;;;;;;;;4971741;28;19989;-84
2022/08/25 13:16:59;;;;;;;;;;;;;;;;;;4975999;28;19918;-84
2022/08/25 13:19:24;;;;;;;;;;;;;;;;;;4988959;28;19920;-83
2022/08/25 13:21:49;;;;;;;;;;;;;;;;;;4970838;28;19914;-85
2022/08/25 13:24:15;;;;;;;;;;;;;;;;;;4971361;28;19960;-85
2022/08/25 13:26:40;;;;;;;;;;;;;;;;;;4974839;28;19914;-84
2022/08/25 13:29:05;;;;;;;;;;;;;;;;;;4976128;28;20048;-86
2022/08/25 13:31:30;;;;;;;;;;;;;;;;;;4977702;28;20020;-85
2022/08/25 13:33:56;;;;;;;;;;;;;;;;;;4992279;28;20303;-85
2022/08/25 13:39:05;;;;;;;;;;;;;;;;;;4989957;28;19961;-85
2022/08/25 13:41:31;;;;;;;;;;;;;;;;;;4973042;28;19922;-83
2022/08/25 13:43:56;;;;;;;;;;;;;;;;;;4971443;28;20544;-86
2022/08/25 13:46:21;;;;;;;;;;;;;;;;;;4990924;28;20068;-87
2022/08/25 13:48:46;;;;;;;;;;;;;;;;;;4975729;28;19914;-89
2022/08/25 13:51:11;;;;;;;;;;;;;;;;;;4995798;28;20013;-89
2022/08/25 13:53:36;;;;;;;;;;;;;;;;;;4977190;28;19921;-84
2022/08/25 13:56:02;;;;;;;;;;;;;;;;;;4986373;28;20104;-87
2022/08/25 13:58:30;;;;;;;;;;;;;;;;;;4975134;28;19914;-86
2022/08/25 14:00:55;;;;;;;;;;;;;;;;;;4974661;28;19913;-87
2022/08/25 14:03:21;;;;;;;;;;;;;;;;;;4958793;28;19918;-88
2022/08/25 14:05:46;;;;;;;;;;;;;;;;;;4973648;28;20414;-87
2022/08/25 14:08:11;;;;;;;;;;;;;;;;;;4974335;28;19917;-86
2022/08/25 14:10:36;;;;;;;;;;;;;;;;;;4979820;28;20359;-86
2022/08/25 14:13:02;;;;;;;;;;;;;;;;;;5005610;28;19946;-85
2022/08/25 14:15:28;;;;;;;;;;;;;;;;;;4972243;28;20372;-84
2022/08/25 14:17:53;;;;;;;;;;;;;;;;;;4981381;28;19921;-83
2022/08/25 14:20:19;;;;;;;;;;;;;;;;;;4984504;28;19917;-84
2022/08/25 14:22:44;;;;;;;;;;;;;;;;;;4973295;28;19964;-85
2022/08/25 14:25:10;;;;;;;;;;;;;;;;;;4973732;28;19914;-85
2022/08/25 14:27:35;;;;;;;;;;;;;;;;;;4976088;28;20421;-85
2022/08/25 14:30:00;;;;;;;;;;;;;;;;;;4986972;28;19914;-84
2022/08/25 14:32:25;;;;;;;;;;;;;;;;;;4975840;28;19947;-85
2022/08/25 14:34:51;;;;;;;;;;;;;;;;;;4976439;28;19917;-86
2022/08/25 14:37:16;;;;;;;;;;;;;;;;;;4976211;28;19914;-85
2022/08/25 14:39:41;;;;;;;;;;;;;;;;;;4968947;28;19969;-85
2022/08/25 14:42:07;;;;;;;;;;;;;;;;;;4974998;28;19921;-85
2022/08/25 14:44:32;;;;;;;;;;;;;;;;;;4973793;28;19918;-85
2022/08/25 14:46:58;;;;;;;;;;;;;;;;;;4969641;28;19921;-86
2022/08/25 14:49:25;;;;;;;;;;;;;;;;;;4991235;28;19914;-85
2022/08/25 14:51:51;;;;;;;;;;;;;;;;;;4970910;28;20455;-85
2022/08/25 14:54:17;;;;;;;;;;;;;;;;;;4974390;28;20013;-84
2022/08/25 14:56:42;;;;;;;;;;;;;;;;;;4971541;28;19952;-82
2022/08/25 14:59:07;;;;;;;;;;;;;;;;;;4973318;28;19910;-83
2022/08/25 15:01:32;;;;;;;;;;;;;;;;;;4972353;28;20361;-85
2022/08/25 15:03:58;;;;;;;;;;;;;;;;;;4973557;28;19968;-84
2022/08/25 15:06:23;;;;;;;;;;;;;;;;;;4974672;28;19968;-83
2022/08/25 15:09:06;;;;;;;;;;;;;;;;;;4974748;28;20376;-82
2022/08/25 15:11:32;;;;;;;;;;;;;;;;;;4987884;28;20224;-87
2022/08/25 15:14:00;;;;;;;;;;;;;;;;;;4968568;28;19918;-83
2022/08/25 15:16:25;;;;;;;;;;;;;;;;;;4985230;28;20365;-83
2022/08/25 15:18:50;;;;;;;;;;;;;;;;;;4981619;28;19914;-84
2022/08/25 15:21:15;;;;;;;;;;;;;;;;;;4990625;28;19920;-83
2022/08/25 15:23:40;;;;;;;;;;;;;;;;;;4975061;28;19918;-84
2022/08/25 15:26:08;;;;;;;;;;;;;;;;;;4974969;28;20287;-82
2022/08/25 15:28:33;;;;;;;;;;;;;;;;;;4990456;28;19914;-84
2022/08/25 15:31:01;;;;;;;;;;;;;;;;;;4991526;28;19914;-84
2022/08/25 15:33:26;;;;;;;;;;;;;;;;;;4975426;28;19910;-83
2022/08/25 15:35:52;;;;;;;;;;;;;;;;;;4985565;28;19925;-83
2022/08/25 15:38:17;;;;;;;;;;;;;;;;;;4990710;28;20421;-84
2022/08/25 15:40:43;;;;;;;;;;;;;;;;;;4990534;28;19921;-84
2022/08/25 15:43:08;;;;;;;;;;;;;;;;;;4975285;28;19910;-82
2022/08/25 15:45:34;;;;;;;;;;;;;;;;;;4971226;28;20181;-83
2022/08/25 15:47:59;;;;;;;;;;;;;;;;;;4989737;28;19924;-82
2022/08/25 15:50:25;;;;;;;;;;;;;;;;;;4991264;28;20412;-83
2022/08/25 15:52:50;;;;;;;;;;;;;;;;;;4991515;28;19936;-83
2022/08/25 15:55:15;;;;;;;;;;;;;;;;;;4991957;28;19968;-83
2022/08/25 15:57:41;;;;;;;;;;;;;;;;;;4990909;28;20269;-83
2022/08/25 16:00:06;;;;;;;;;;;;;;;;;;4973254;28;19918;-83
2022/08/25 16:02:33;;;;;;;;;;;;;;;;;;4971724;28;20368;-83
2022/08/25 16:04:58;;;;;;;;;;;;;;;;;;4984144;28;19914;-83
2022/08/25 16:07:23;;;;;;;;;;;;;;;;;;4972813;28;19918;-82
2022/08/25 16:09:48;;;;;;;;;;;;;;;;;;4975509;28;19913;-82
2022/08/25 16:12:14;;;;;;;;;;;;;;;;;;4977233;28;19945;-82
2022/08/25 16:14:39;;;;;;;;;;;;;;;;;;4974826;28;20000;-82
2022/08/25 16:17:04;;;;;;;;;;;;;;;;;;4981967;28;19918;-82
2022/08/25 16:19:32;;;;;;;;;;;;;;;;;;4955721;28;19914;-82
2022/08/25 16:22:06;;;;;;;;;;;;;;;;;;4957252;28;19914;-83
2022/08/25 16:24:31;;;;;;;;;;;;;;;;;;4958998;28;19914;-82
2022/08/25 16:27:03;;;;;;;;;;;;;;;;;;4955878;28;19919;-82
2022/08/25 16:29:30;;;;;;;;;;;;;;;;;;4958146;28;19914;-82
2022/08/25 16:31:57;;;;;;;;;;;;;;;;;;4952574;28;19922;-83
2022/08/25 16:34:22;;;;;;;;;;;;;;;;;;4975444;28;19973;-82
2022/08/25 16:36:48;;;;;;;;;;;;;;;;;;4957625;28;19914;-84
2022/08/25 16:39:13;;;;;;;;;;;;;;;;;;4955629;28;19918;-83
2022/08/25 16:41:38;;;;;;;;;;;;;;;;;;4953411;29;19915;-83
2022/08/25 16:44:06;;;;;;;;;;;;;;;;;;4949093;28;20276;-83
2022/08/25 16:46:52;;;;;;;;;;;;;;;;;;4956566;28;19918;-84
2022/08/25 16:49:17;;;;;;;;;;;;;;;;;;4971710;28;19960;-87
2022/08/25 16:51:43;;;;;;;;;;;;;;;;;;4954110;29;20301;-88